createdAt,value
2023-08-11T00:01:31.010Z,98846.03
2023-08-11T00:03:58.406Z,98847.81
2023-08-11T00:06:26.497Z,98847.41
2023-08-11T00:08:56.185Z,98842.53
2023-08-11T00:11:23.521Z,98844.19
2023-08-11T00:13:50.580Z,98847.75
2023-08-11T00:16:17.639Z,98861.19
2023-08-11T00:18:44.585Z,98861.78
2023-08-11T00:21:13.752Z,98864.09
2023-08-11T00:23:41.192Z,98865.56
2023-08-11T00:26:07.891Z,98867.44
2023-08-11T00:28:34.590Z,98861.13
2023-08-11T00:31:01.379Z,98867.00
2023-08-11T00:33:28.217Z,98869.78
2023-08-11T00:35:55.337Z,98878.94
2023-08-11T00:38:24.918Z,98871.28
2023-08-11T00:40:53.067Z,98863.53
2023-08-11T00:43:19.903Z,98879.41
2023-08-11T00:45:49.387Z,98867.44
2023-08-11T00:48:16.757Z,98868.63
2023-08-11T00:50:43.729Z,98876.38
2023-08-11T00:53:11.219Z,98873.38
2023-08-11T00:55:38.870Z,98868.19
2023-08-11T00:58:06.969Z,98872.50
2023-08-11T01:00:34.945Z,98875.28
2023-08-11T01:03:02.926Z,98873.84
2023-08-11T01:05:35.756Z,98877.53
2023-08-11T01:08:21.854Z,98878.97
2023-08-11T01:10:58.850Z,98880.75
2023-08-11T01:13:30.374Z,98875.44
2023-08-11T01:16:01.441Z,98876.69
2023-08-11T01:18:30.044Z,98886.22
2023-08-11T01:21:01.199Z,98879.19
2023-08-11T01:23:28.288Z,98876.38
2023-08-11T01:25:55.954Z,98885.47
2023-08-11T01:28:23.821Z,98881.44
2023-08-11T01:30:50.555Z,98888.19
2023-08-11T01:33:17.320Z,98895.63
2023-08-11T01:35:45.448Z,98883.97
2023-08-11T01:38:12.192Z,98886.72
2023-08-11T01:40:39.913Z,98885.22
2023-08-11T01:43:09.683Z,98891.50
2023-08-11T01:45:36.504Z,98889.94
2023-08-11T01:48:04.696Z,98888.75
2023-08-11T01:50:33.328Z,98892.81
2023-08-11T01:53:00.007Z,98898.41
2023-08-11T01:55:27.435Z,98881.66
2023-08-11T01:57:59.090Z,98893.50
2023-08-11T02:00:28.584Z,98902.34
2023-08-11T02:02:56.097Z,98892.75
2023-08-11T02:05:25.968Z,98899.09
2023-08-11T02:07:53.684Z,98891.84
2023-08-11T02:10:20.638Z,98899.13
2023-08-11T02:12:49.730Z,98898.06
2023-08-11T02:15:16.453Z,98900.56
2023-08-11T02:17:43.892Z,98899.78
2023-08-11T02:20:29.518Z,98901.56
2023-08-11T02:22:56.575Z,98897.38
2023-08-11T02:25:23.569Z,98905.38
2023-08-11T02:27:50.871Z,98906.13
2023-08-11T02:30:18.700Z,98902.66
2023-08-11T02:32:48.852Z,98902.84
2023-08-11T02:35:18.509Z,98896.13
2023-08-11T02:37:45.821Z,98896.94
2023-08-11T02:40:12.693Z,98901.66
2023-08-11T02:42:43.751Z,98907.47
2023-08-11T02:45:11.778Z,98898.34
2023-08-11T02:47:40.350Z,98906.97
2023-08-11T02:50:07.897Z,98901.44
2023-08-11T02:52:35.917Z,98895.88
2023-08-11T02:55:07.531Z,98907.22
2023-08-11T02:57:35.740Z,98903.50
2023-08-11T03:00:09.468Z,98898.22
2023-08-11T03:02:36.867Z,98907.72
2023-08-11T03:05:04.966Z,98903.63
2023-08-11T03:07:32.435Z,98910.34
2023-08-11T03:09:59.418Z,98892.59
2023-08-11T03:12:29.232Z,98908.78
2023-08-11T03:14:56.580Z,98909.19
2023-08-11T03:17:24.672Z,98908.34
2023-08-11T03:19:52.905Z,98913.41
2023-08-11T03:22:20.933Z,98913.41
2023-08-11T03:24:49.173Z,98912.63
2023-08-11T03:27:16.309Z,98910.06
2023-08-11T03:29:43.053Z,98912.41
2023-08-11T03:32:10.702Z,98915.75
2023-08-11T03:34:38.701Z,98910.31
2023-08-11T03:37:06.614Z,98919.66
2023-08-11T03:39:33.460Z,98923.06
2023-08-11T03:42:00.139Z,98920.78
2023-08-11T03:44:27.160Z,98924.63
2023-08-11T03:46:54.407Z,98920.66
2023-08-11T03:49:21.325Z,98918.88
2023-08-11T03:51:48.084Z,98930.38
2023-08-11T03:54:16.338Z,98925.16
2023-08-11T03:56:43.093Z,98923.50
2023-08-11T03:59:09.880Z,98926.72
2023-08-11T04:01:37.111Z,98919.94
2023-08-11T04:04:04.116Z,98917.56
2023-08-11T04:06:33.979Z,98926.81
2023-08-11T04:09:02.659Z,98924.72
2023-08-11T04:11:31.034Z,98922.97
2023-08-11T04:13:57.899Z,98925.34
2023-08-11T04:16:24.730Z,98932.31
2023-08-11T04:18:51.412Z,98924.72
2023-08-11T04:21:18.258Z,98891.75
2023-08-11T04:23:45.015Z,98931.41
2023-08-11T04:26:13.298Z,98934.31
2023-08-11T04:28:42.665Z,98928.97
2023-08-11T04:31:10.929Z,98928.03
2023-08-11T04:33:38.679Z,98930.47
2023-08-11T04:36:05.695Z,98934.03
2023-08-11T04:38:32.457Z,98936.09
2023-08-11T04:40:59.912Z,98933.47
2023-08-11T04:43:26.749Z,98935.97
2023-08-11T04:45:55.363Z,98941.91
2023-08-11T04:48:23.148Z,98942.22
2023-08-11T04:50:53.363Z,98937.81
2023-08-11T04:53:22.372Z,98931.50
2023-08-11T04:55:49.673Z,98940.56
2023-08-11T04:58:16.598Z,98945.50
2023-08-11T05:00:44.476Z,98944.78
2023-08-11T05:03:11.503Z,98959.06
2023-08-11T05:05:38.287Z,98954.16
2023-08-11T05:08:05.439Z,98955.22
2023-08-11T05:10:32.109Z,98953.03
2023-08-11T05:13:00.097Z,98960.56
2023-08-11T05:15:26.939Z,98956.97
2023-08-11T05:17:53.736Z,98961.91
2023-08-11T05:20:20.440Z,98965.34
2023-08-11T05:22:48.862Z,98966.31
2023-08-11T05:25:15.737Z,98964.38
2023-08-11T05:27:42.662Z,98964.75
2023-08-11T05:30:09.758Z,98972.03
2023-08-11T05:32:36.860Z,98978.66
2023-08-11T05:35:03.884Z,98975.34
2023-08-11T05:37:30.900Z,98970.50
2023-08-11T05:39:57.659Z,98976.63
2023-08-11T05:42:25.042Z,98983.31
2023-08-11T05:44:51.819Z,98985.75
2023-08-11T05:47:18.807Z,98980.13
2023-08-11T05:49:45.520Z,98982.81
2023-08-11T05:52:12.419Z,98986.97
2023-08-11T05:54:39.095Z,98983.09
2023-08-11T05:57:05.986Z,98991.38
2023-08-11T05:59:33.302Z,98990.25
2023-08-11T06:02:00.186Z,98987.41
2023-08-11T06:04:27.229Z,98984.50
2023-08-11T06:06:54.894Z,98986.38
2023-08-11T06:09:22.669Z,98992.41
2023-08-11T06:11:49.448Z,98987.84
2023-08-11T06:14:16.146Z,98988.78
2023-08-11T06:16:42.861Z,98993.66
2023-08-11T06:19:09.542Z,98977.63
2023-08-11T06:21:36.434Z,98987.66
2023-08-11T06:24:04.272Z,98991.63
2023-08-11T06:26:31.361Z,98988.88
2023-08-11T06:28:58.346Z,98983.63
2023-08-11T06:31:25.059Z,98990.06
2023-08-11T06:33:51.705Z,98994.19
2023-08-11T06:36:19.129Z,98996.25
2023-08-11T06:38:45.861Z,98995.41
2023-08-11T06:41:13.024Z,99008.88
2023-08-11T06:43:40.403Z,99007.50
2023-08-11T06:46:07.682Z,99000.88
2023-08-11T06:48:34.749Z,99013.41
2023-08-11T06:51:01.597Z,99011.50
2023-08-11T06:53:28.410Z,99011.53
2023-08-11T06:55:55.182Z,99018.63
2023-08-11T06:58:24.073Z,99022.72
2023-08-11T07:00:52.501Z,99013.28
2023-08-11T07:03:19.229Z,99015.53
2023-08-11T07:05:46.345Z,99014.81
2023-08-11T07:08:13.112Z,99020.03
2023-08-11T07:10:40.840Z,99021.28
2023-08-11T07:13:07.564Z,99014.47
2023-08-11T07:15:36.109Z,99020.59
2023-08-11T07:18:04.824Z,99018.63
2023-08-11T07:20:31.686Z,99021.88
2023-08-11T07:22:58.365Z,99039.16
2023-08-11T07:25:25.147Z,99030.19
2023-08-11T07:27:51.903Z,99036.09
2023-08-11T07:30:18.940Z,99029.28
2023-08-11T07:32:45.687Z,99032.28
2023-08-11T07:35:12.520Z,99031.69
2023-08-11T07:37:39.167Z,99026.38
2023-08-11T07:40:07.656Z,99027.44
2023-08-11T07:42:34.397Z,99033.00
2023-08-11T07:45:01.144Z,99035.19
2023-08-11T07:47:28.155Z,99025.38
2023-08-11T07:49:57.706Z,99024.63
2023-08-11T07:52:25.011Z,99026.97
2023-08-11T07:54:51.779Z,99029.63
2023-08-11T07:57:18.750Z,99029.03
2023-08-11T07:59:45.668Z,99034.84
2023-08-11T08:02:14.354Z,99038.50
2023-08-11T08:04:41.177Z,99031.50
2023-08-11T08:07:08.272Z,99039.31
2023-08-11T08:09:35.669Z,99036.56
2023-08-11T08:12:03.170Z,99040.03
2023-08-11T08:14:30.080Z,99039.88
2023-08-11T08:16:58.061Z,99031.38
2023-08-11T08:19:24.869Z,99035.34
2023-08-11T08:21:52.066Z,99035.69
2023-08-11T08:24:18.724Z,99041.81
2023-08-11T08:26:45.686Z,99052.03
2023-08-11T08:29:12.449Z,99046.19
2023-08-11T08:31:39.462Z,99042.81
2023-08-11T08:34:06.217Z,99045.47
2023-08-11T08:36:32.936Z,99045.94
2023-08-11T08:38:59.622Z,99043.25
2023-08-11T08:41:32.177Z,99041.91
2023-08-11T08:44:01.507Z,99041.84
2023-08-11T08:46:29.703Z,99042.38
2023-08-11T08:49:06.064Z,99035.38
2023-08-11T08:51:33.063Z,99029.34
2023-08-11T08:53:59.707Z,99035.44
2023-08-11T08:56:27.827Z,99034.09
2023-08-11T08:58:54.671Z,99029.34
2023-08-11T09:01:23.029Z,99035.78
2023-08-11T09:03:50.847Z,99029.34
2023-08-11T09:06:18.243Z,99026.25
2023-08-11T09:08:45.146Z,99023.00
2023-08-11T09:11:11.932Z,99023.19
2023-08-11T09:13:39.202Z,99030.91
2023-08-11T09:16:06.478Z,99023.19
2023-08-11T09:18:33.916Z,99019.97
2023-08-11T09:21:03.377Z,99029.31
2023-08-11T09:23:30.585Z,99023.09
2023-08-11T09:25:57.439Z,99012.41
2023-08-11T09:28:24.215Z,99016.69
2023-08-11T09:30:51.773Z,99020.94
2023-08-11T09:33:19.367Z,99018.97
2023-08-11T09:35:46.353Z,99012.53
2023-08-11T09:38:13.105Z,98996.63
2023-08-11T09:40:41.145Z,99009.59
2023-08-11T09:43:08.249Z,99008.41
2023-08-11T09:45:35.027Z,99007.09
2023-08-11T09:48:01.835Z,99003.78
2023-08-11T09:50:31.359Z,99013.47
2023-08-11T09:53:00.980Z,99010.31
2023-08-11T09:55:31.067Z,99001.75
2023-08-11T09:57:59.403Z,99003.91
2023-08-11T10:00:26.514Z,99007.97
2023-08-11T10:03:10.748Z,99006.09
2023-08-11T10:05:46.442Z,99003.19
2023-08-11T10:08:20.040Z,99005.94
2023-08-11T10:10:47.128Z,99008.88
2023-08-11T10:13:17.184Z,99008.34
2023-08-11T10:15:45.203Z,99011.81
2023-08-11T10:18:12.076Z,99015.13
2023-08-11T10:20:39.655Z,99011.38
2023-08-11T10:23:07.307Z,99008.56
2023-08-11T10:25:34.259Z,99009.50
2023-08-11T10:28:02.291Z,99017.19
2023-08-11T10:30:29.515Z,99013.88
2023-08-11T10:33:10.366Z,99015.97
2023-08-11T10:35:49.009Z,99011.44
2023-08-11T10:38:30.353Z,99004.88
2023-08-11T10:41:09.436Z,99014.50
2023-08-11T10:43:44.210Z,99008.94
2023-08-11T10:46:31.421Z,99007.09
2023-08-11T10:49:05.043Z,99016.75
2023-08-11T10:51:39.063Z,99007.69
2023-08-11T10:54:15.113Z,99005.84
2023-08-11T10:56:43.804Z,99000.78
2023-08-11T10:59:15.986Z,99006.03
2023-08-11T11:01:47.757Z,98998.97
2023-08-11T11:04:16.910Z,98999.72
2023-08-11T11:06:48.432Z,98998.72
2023-08-11T11:09:16.140Z,98995.81
2023-08-11T11:11:44.446Z,98992.19
2023-08-11T11:14:13.026Z,98990.66
2023-08-11T11:16:40.646Z,98986.50
2023-08-11T11:19:08.825Z,98974.59
2023-08-11T11:21:36.086Z,98971.63
2023-08-11T11:24:03.089Z,98963.78
2023-08-11T11:26:31.875Z,98962.91
2023-08-11T11:29:00.726Z,98964.06
2023-08-11T11:31:32.017Z,98964.25
2023-08-11T11:33:59.030Z,98962.06
2023-08-11T11:36:26.510Z,98956.16
2023-08-11T11:38:53.425Z,98956.72
2023-08-11T11:41:21.247Z,98958.56
2023-08-11T11:43:52.078Z,98940.47
2023-08-11T11:46:21.141Z,98953.38
2023-08-11T11:48:52.981Z,98951.88
2023-08-11T11:51:31.242Z,98954.69
2023-08-11T11:54:02.318Z,98956.59
2023-08-11T11:56:30.689Z,98951.06
2023-08-11T11:58:57.919Z,98955.91
2023-08-11T12:01:30.508Z,98947.28
2023-08-11T12:04:01.661Z,98950.00
2023-08-11T12:06:29.907Z,98946.63
2023-08-11T12:09:06.324Z,98942.28
2023-08-11T12:11:33.896Z,98939.38
2023-08-11T12:14:01.665Z,98935.09
2023-08-11T12:16:29.223Z,98940.16
2023-08-11T12:19:01.587Z,98923.09
2023-08-11T12:21:29.328Z,98932.00
2023-08-11T12:23:56.457Z,98923.28
2023-08-11T12:26:23.200Z,98924.81
2023-08-11T12:28:49.856Z,98924.19
2023-08-11T12:31:16.916Z,98923.53
2023-08-11T12:33:43.727Z,98921.78
2023-08-11T12:36:10.725Z,98920.22
2023-08-11T12:38:37.708Z,98917.06
2023-08-11T12:41:04.533Z,98917.56
2023-08-11T12:43:31.158Z,98919.81
2023-08-11T12:45:58.019Z,98916.81
2023-08-11T12:48:24.962Z,98917.19
2023-08-11T12:50:51.803Z,98921.38
2023-08-11T12:53:18.434Z,98906.97
2023-08-11T12:55:45.263Z,98908.19
2023-08-11T12:58:11.932Z,98910.94
2023-08-11T13:00:38.661Z,98901.97
2023-08-11T13:03:05.811Z,98902.91
2023-08-11T13:05:32.551Z,98898.13
2023-08-11T13:07:59.372Z,98902.63
2023-08-11T13:10:26.342Z,98902.69
2023-08-11T13:12:53.046Z,98889.88
2023-08-11T13:15:20.512Z,98901.63
2023-08-11T13:17:47.765Z,98896.53
2023-08-11T13:20:14.572Z,98898.72
2023-08-11T13:22:42.473Z,98893.91
2023-08-11T13:25:10.621Z,98891.69
2023-08-11T13:27:38.668Z,98889.03
2023-08-11T13:30:09.273Z,98891.66
2023-08-11T13:32:36.611Z,98893.13
2023-08-11T13:35:03.604Z,98885.16
2023-08-11T13:37:30.408Z,98887.84
2023-08-11T13:39:58.705Z,98891.75
2023-08-11T13:42:25.485Z,98885.47
2023-08-11T13:44:52.242Z,98883.81
2023-08-11T13:47:19.150Z,98888.31
2023-08-11T13:49:45.867Z,98874.91
2023-08-11T13:52:12.602Z,98876.19
2023-08-11T13:54:39.336Z,98873.75
2023-08-11T13:57:06.169Z,98878.59
2023-08-11T13:59:32.827Z,98876.78
2023-08-11T14:01:59.585Z,98877.03
2023-08-11T14:04:26.277Z,98871.78
2023-08-11T14:06:57.434Z,98874.25
2023-08-11T14:09:27.793Z,98871.59
2023-08-11T14:11:54.411Z,98870.16
2023-08-11T14:14:21.080Z,98868.47
2023-08-11T14:16:47.756Z,98861.97
2023-08-11T14:19:14.457Z,98858.16
2023-08-11T14:21:41.309Z,98862.47
2023-08-11T14:24:08.733Z,98862.13
2023-08-11T14:26:35.371Z,98856.91
2023-08-11T14:29:02.535Z,98865.22
2023-08-11T14:31:29.230Z,98866.09
2023-08-11T14:33:56.003Z,98871.63
2023-08-11T14:36:22.820Z,98875.28
2023-08-11T14:38:49.691Z,98864.25
2023-08-11T14:41:16.706Z,98867.75
2023-08-11T14:43:43.895Z,98857.56
2023-08-11T14:46:10.600Z,98861.91
2023-08-11T14:48:37.261Z,98856.22
2023-08-11T14:51:08.145Z,98847.66
2023-08-11T14:53:34.996Z,98850.09
2023-08-11T14:56:02.010Z,98847.69
2023-08-11T14:58:29.131Z,98849.19
2023-08-11T15:00:58.724Z,98844.25
2023-08-11T15:03:25.761Z,98847.34
2023-08-11T15:05:52.459Z,98842.16
2023-08-11T15:08:19.230Z,98841.75
2023-08-11T15:10:45.929Z,98851.28
2023-08-11T15:13:14.161Z,98841.13
2023-08-11T15:15:42.941Z,98840.50
2023-08-11T15:18:09.628Z,98837.47
2023-08-11T15:20:36.380Z,98841.56
2023-08-11T15:23:03.188Z,98837.72
2023-08-11T15:25:29.947Z,98835.69
2023-08-11T15:27:57.142Z,98841.41
2023-08-11T15:30:24.210Z,98834.88
2023-08-11T15:32:51.188Z,98844.84
2023-08-11T15:35:19.121Z,98833.13
2023-08-11T15:37:46.143Z,98837.81
2023-08-11T15:40:13.235Z,98833.75
2023-08-11T15:42:40.239Z,98839.25
2023-08-11T15:45:07.572Z,98835.56
2023-08-11T15:47:34.242Z,98830.22
2023-08-11T15:50:01.797Z,98833.69
2023-08-11T15:52:28.713Z,98824.94
2023-08-11T15:54:55.399Z,98829.44
2023-08-11T15:57:22.239Z,98832.69
2023-08-11T15:59:49.035Z,98830.03
2023-08-11T16:02:16.027Z,98824.53
2023-08-11T16:04:42.909Z,98824.56
2023-08-11T16:07:09.802Z,98819.84
2023-08-11T16:09:37.877Z,98836.72
2023-08-11T16:12:04.895Z,98827.34
2023-08-11T16:14:32.411Z,98829.16
2023-08-11T16:16:59.973Z,98824.09
2023-08-11T16:19:26.665Z,98824.72
2023-08-11T16:21:53.378Z,98824.94
2023-08-11T16:24:20.389Z,98817.66
2023-08-11T16:26:47.035Z,98815.41
2023-08-11T16:29:13.764Z,98822.53
2023-08-11T16:31:40.413Z,98816.22
2023-08-11T16:34:07.205Z,98815.81
2023-08-11T16:36:34.007Z,98813.97
2023-08-11T16:39:00.700Z,98817.22
2023-08-11T16:41:27.480Z,98817.22
2023-08-11T16:43:54.629Z,98821.91
2023-08-11T16:46:23.506Z,98820.50
2023-08-11T16:48:50.820Z,98821.13
2023-08-11T16:51:17.540Z,98817.25
2023-08-11T16:53:44.458Z,98820.47
2023-08-11T16:56:11.485Z,98822.50
2023-08-11T16:58:38.415Z,98819.06
2023-08-11T17:01:05.662Z,98824.53
2023-08-11T17:03:32.759Z,98823.69
2023-08-11T17:05:59.873Z,98825.75
2023-08-11T17:08:26.673Z,98822.84
2023-08-11T17:10:53.436Z,98819.81
2023-08-11T17:13:20.330Z,98833.38
2023-08-11T17:15:47.010Z,98823.56
2023-08-11T17:18:13.827Z,98827.03
2023-08-11T17:20:40.700Z,98825.09
2023-08-11T17:23:07.533Z,98826.50
2023-08-11T17:25:34.263Z,98827.44
2023-08-11T17:28:01.033Z,98835.16
2023-08-11T17:30:30.739Z,98829.50
2023-08-11T17:32:58.673Z,98826.69
2023-08-11T17:35:25.907Z,98835.59
2023-08-11T17:37:52.735Z,98827.31
2023-08-11T17:40:19.418Z,98827.66
2023-08-11T17:42:46.343Z,98829.88
2023-08-11T17:45:13.218Z,98833.72
2023-08-11T17:47:40.303Z,98831.44
2023-08-11T17:50:07.411Z,98837.19
2023-08-11T17:52:34.912Z,98829.19
2023-08-11T17:55:01.728Z,98834.94
2023-08-11T17:57:28.493Z,98828.81
2023-08-11T17:59:55.214Z,98838.81
2023-08-11T18:02:22.046Z,98846.22
2023-08-11T18:04:48.729Z,98852.84
2023-08-11T18:07:15.431Z,98846.53
2023-08-11T18:09:42.117Z,98858.28
2023-08-11T18:12:09.835Z,98858.28
2023-08-11T18:14:36.873Z,98857.44
2023-08-11T18:17:04.266Z,98859.25
2023-08-11T18:19:31.044Z,98863.97
2023-08-11T18:21:57.834Z,98864.06
2023-08-11T18:24:24.492Z,98866.69
2023-08-11T18:26:51.226Z,98866.00
2023-08-11T18:29:19.193Z,98866.38
2023-08-11T18:31:46.112Z,98869.66
2023-08-11T18:34:12.770Z,98870.09
2023-08-11T18:36:39.475Z,98865.19
2023-08-11T18:39:06.301Z,98873.63
2023-08-11T18:41:33.094Z,98876.44
2023-08-11T18:44:00.973Z,98880.50
2023-08-11T18:46:27.889Z,98878.22
2023-08-11T18:48:54.820Z,98884.72
2023-08-11T18:51:21.567Z,98888.84
2023-08-11T18:53:48.210Z,98890.22
2023-08-11T18:56:14.999Z,98895.34
2023-08-11T18:58:41.898Z,98898.41
2023-08-11T19:01:08.685Z,98903.34
2023-08-11T19:03:35.938Z,98905.44
2023-08-11T19:06:02.810Z,98907.66
2023-08-11T19:08:29.702Z,98916.09
2023-08-11T19:10:56.463Z,98919.00
2023-08-11T19:13:23.244Z,98921.94
2023-08-11T19:15:50.708Z,98922.00
2023-08-11T19:18:18.026Z,98921.81
2023-08-11T19:20:47.240Z,98923.06
2023-08-11T19:23:14.447Z,98928.19
2023-08-11T19:25:41.247Z,98932.69
2023-08-11T19:28:08.367Z,98935.03
2023-08-11T19:30:35.506Z,98933.41
2023-08-11T19:33:02.586Z,98937.53
2023-08-11T19:35:29.454Z,98933.94
2023-08-11T19:37:56.155Z,98942.13
2023-08-11T19:40:23.018Z,98940.84
2023-08-11T19:42:49.662Z,98942.56
2023-08-11T19:45:16.487Z,98951.72
2023-08-11T19:47:43.466Z,98945.06
2023-08-11T19:50:10.459Z,98947.38
2023-08-11T19:52:37.266Z,98959.00
2023-08-11T19:55:04.635Z,98956.22
2023-08-11T19:57:31.274Z,98959.78
2023-08-11T19:59:58.105Z,98959.56
2023-08-11T20:02:24.817Z,98962.72
2023-08-11T20:04:51.573Z,98961.97
2023-08-11T20:07:18.241Z,98960.44
2023-08-11T20:09:44.945Z,98961.44
2023-08-11T20:12:11.673Z,98962.78
2023-08-11T20:14:38.470Z,98964.09
2023-08-11T20:17:05.176Z,98965.22
2023-08-11T20:19:31.985Z,98963.09
2023-08-11T20:21:59.811Z,98971.44
2023-08-11T20:24:26.554Z,98971.94
2023-08-11T20:26:57.394Z,98968.66
2023-08-11T20:29:25.367Z,98975.25
2023-08-11T20:31:55.886Z,98972.94
2023-08-11T20:34:23.987Z,98972.22
2023-08-11T20:36:51.284Z,98967.66
2023-08-11T20:39:18.054Z,98968.00
2023-08-11T20:41:44.807Z,98977.72
2023-08-11T20:44:11.844Z,98983.97
2023-08-11T20:46:38.858Z,98981.81
2023-08-11T20:49:05.793Z,98978.00
2023-08-11T20:51:32.467Z,98985.38
2023-08-11T20:53:59.229Z,98980.50
2023-08-11T20:56:25.977Z,98985.13
2023-08-11T20:58:52.721Z,98981.63
2023-08-11T21:01:19.444Z,98986.75
2023-08-11T21:03:46.411Z,98991.56
2023-08-11T21:06:13.159Z,98996.00
2023-08-11T21:08:47.793Z,99002.88
2023-08-11T21:11:15.675Z,99004.50
2023-08-11T21:13:42.320Z,99005.03
2023-08-11T21:16:09.226Z,99005.84
2023-08-11T21:18:36.191Z,99002.84
2023-08-11T21:21:02.973Z,99003.50
2023-08-11T21:23:29.666Z,99005.28
2023-08-11T21:25:56.408Z,99012.72
2023-08-11T21:28:23.078Z,99010.75
2023-08-11T21:31:03.880Z,99014.69
2023-08-11T21:33:34.790Z,99011.44
2023-08-11T21:36:01.488Z,99014.41
2023-08-11T21:38:28.537Z,99021.28
2023-08-11T21:40:55.970Z,99014.63
2023-08-11T21:43:23.150Z,99017.06
2023-08-11T21:45:49.921Z,99022.19
2023-08-11T21:48:16.756Z,99029.06
2023-08-11T21:50:43.728Z,99033.34
2023-08-11T21:53:22.312Z,99031.16
2023-08-11T21:55:50.763Z,99033.88
2023-08-11T21:58:17.442Z,99039.50
2023-08-11T22:00:45.006Z,99039.69
2023-08-11T22:03:12.083Z,99038.53
2023-08-11T22:05:39.016Z,99036.88
2023-08-11T22:08:05.940Z,99042.13
2023-08-11T22:10:32.777Z,99048.03
2023-08-11T22:12:59.569Z,99045.91
2023-08-11T22:15:26.308Z,99050.50
2023-08-11T22:17:54.755Z,99056.56
2023-08-11T22:20:22.017Z,99053.66
2023-08-11T22:22:48.652Z,99046.56
2023-08-11T22:25:16.131Z,99051.09
2023-08-11T22:27:43.176Z,99053.03
2023-08-11T22:30:10.279Z,99057.97
2023-08-11T22:32:37.021Z,99051.13
2023-08-11T22:35:04.132Z,99056.34
2023-08-11T22:37:30.893Z,99064.00
2023-08-11T22:39:57.751Z,99060.84
2023-08-11T22:42:27.814Z,99069.69
2023-08-11T22:44:55.455Z,99067.00
2023-08-11T22:47:23.464Z,99065.41
2023-08-11T22:49:50.930Z,99062.59
2023-08-11T22:52:18.808Z,99063.44
2023-08-11T22:54:45.578Z,99066.47
2023-08-11T22:57:12.500Z,99064.97
2023-08-11T22:59:39.457Z,99059.28
2023-08-11T23:02:06.128Z,99061.59
2023-08-11T23:04:32.872Z,99054.03
2023-08-11T23:06:59.586Z,99066.16
2023-08-11T23:09:26.751Z,99062.16
2023-08-11T23:11:53.455Z,99055.47
2023-08-11T23:14:20.152Z,99053.03
2023-08-11T23:16:46.904Z,99057.31
2023-08-11T23:19:13.669Z,99066.13
2023-08-11T23:21:40.347Z,99059.56
2023-08-11T23:24:07.641Z,99058.41
2023-08-11T23:26:34.305Z,99059.06
2023-08-11T23:29:01.424Z,99059.72
2023-08-11T23:31:28.265Z,99058.25
2023-08-11T23:33:55.030Z,99068.41
2023-08-11T23:36:21.710Z,99059.81
2023-08-11T23:38:48.952Z,99057.03
2023-08-11T23:41:15.650Z,99063.88
2023-08-11T23:43:42.404Z,99057.38
2023-08-11T23:46:14.814Z,99054.78
2023-08-11T23:48:44.846Z,99060.19
2023-08-11T23:51:11.756Z,99054.28
2023-08-11T23:53:38.670Z,99058.66
2023-08-11T23:56:05.466Z,99056.78
2023-08-11T23:58:32.242Z,99055.19
